sensor_id;sensor_type;location;lat;lon;timestamp;temperature;humidity
76857;DHT22;69705;44.686;37.628;2023-05-08T00:00:41;13.53;92.56
76857;DHT22;69705;44.686;37.628;2023-05-08T00:03:08;13.46;92.39
76857;DHT22;69705;44.686;37.628;2023-05-08T00:05:35;13.43;92.70
76857;DHT22;69705;44.686;37.628;2023-05-08T00:08:01;13.46;92.41
76857;DHT22;69705;44.686;37.628;2023-05-08T00:10:28;13.45;92.72
76857;DHT22;69705;44.686;37.628;2023-05-08T00:12:55;13.45;92.30
76857;DHT22;69705;44.686;37.628;2023-05-08T00:15:22;13.46;92.70
76857;DHT22;69705;44.686;37.628;2023-05-08T00:17:49;13.41;92.26
76857;DHT22;69705;44.686;37.628;2023-05-08T00:20:16;13.39;92.42
76857;DHT22;69705;44.686;37.628;2023-05-08T00:22:42;13.39;92.17
76857;DHT22;69705;44.686;37.628;2023-05-08T00:25:09;13.41;92.39
76857;DHT22;69705;44.686;37.628;2023-05-08T00:27:36;13.48;92.50
76857;DHT22;69705;44.686;37.628;2023-05-08T00:30:04;13.46;92.10
76857;DHT22;69705;44.686;37.628;2023-05-08T00:32:32;13.49;92.12
76857;DHT22;69705;44.686;37.628;2023-05-08T00:34:59;13.50;91.73
76857;DHT22;69705;44.686;37.628;2023-05-08T00:37:26;13.51;91.50
76857;DHT22;69705;44.686;37.628;2023-05-08T00:39:55;13.47;91.90
76857;DHT22;69705;44.686;37.628;2023-05-08T00:42:22;13.38;90.87
76857;DHT22;69705;44.686;37.628;2023-05-08T00:44:49;13.34;91.89
76857;DHT22;69705;44.686;37.628;2023-05-08T00:47:16;13.26;91.81
76857;DHT22;69705;44.686;37.628;2023-05-08T00:49:43;13.21;92.39
76857;DHT22;69705;44.686;37.628;2023-05-08T00:52:12;13.16;92.54
76857;DHT22;69705;44.686;37.628;2023-05-08T00:54:39;13.16;92.80
76857;DHT22;69705;44.686;37.628;2023-05-08T00:57:06;13.10;92.64
76857;DHT22;69705;44.686;37.628;2023-05-08T00:59:35;13.05;93.02
76857;DHT22;69705;44.686;37.628;2023-05-08T01:02:02;12.97;92.85
76857;DHT22;69705;44.686;37.628;2023-05-08T01:04:30;12.96;93.70
76857;DHT22;69705;44.686;37.628;2023-05-08T01:06:58;12.95;93.03
76857;DHT22;69705;44.686;37.628;2023-05-08T01:09:25;12.93;93.34
76857;DHT22;69705;44.686;37.628;2023-05-08T01:14:42;12.89;93.51
76857;DHT22;69705;44.686;37.628;2023-05-08T01:17:20;12.86;93.85
76857;DHT22;69705;44.686;37.628;2023-05-08T01:25:54;12.76;94.19
76857;DHT22;69705;44.686;37.628;2023-05-08T01:28:37;12.74;93.97
76857;DHT22;69705;44.686;37.628;2023-05-08T01:31:21;12.72;94.35
76857;DHT22;69705;44.686;37.628;2023-05-08T01:33:58;12.71;94.94
76857;DHT22;69705;44.686;37.628;2023-05-08T01:39:13;12.63;94.62
76857;DHT22;69705;44.686;37.628;2023-05-08T01:41:49;12.61;94.69
76857;DHT22;69705;44.686;37.628;2023-05-08T01:44:20;12.69;94.67
76857;DHT22;69705;44.686;37.628;2023-05-08T01:46:50;12.69;94.76
76857;DHT22;69705;44.686;37.628;2023-05-08T01:49:33;12.66;94.25
76857;DHT22;69705;44.686;37.628;2023-05-08T01:52:06;12.67;94.44
76857;DHT22;69705;44.686;37.628;2023-05-08T01:54:42;12.65;94.30
76857;DHT22;69705;44.686;37.628;2023-05-08T01:57:11;12.63;94.62
76857;DHT22;69705;44.686;37.628;2023-05-08T01:59:40;12.63;94.82
76857;DHT22;69705;44.686;37.628;2023-05-08T02:02:11;12.64;94.62
76857;DHT22;69705;44.686;37.628;2023-05-08T02:04:39;12.63;94.66
76857;DHT22;69705;44.686;37.628;2023-05-08T02:07:07;12.59;94.36
76857;DHT22;69705;44.686;37.628;2023-05-08T02:09:35;12.56;94.94
76857;DHT22;69705;44.686;37.628;2023-05-08T02:12:05;12.52;95.01
76857;DHT22;69705;44.686;37.628;2023-05-08T02:14:33;12.53;95.19
76857;DHT22;69705;44.686;37.628;2023-05-08T02:17:01;12.52;94.79
76857;DHT22;69705;44.686;37.628;2023-05-08T02:19:29;12.49;95.04
76857;DHT22;69705;44.686;37.628;2023-05-08T02:21:57;12.49;95.00
76857;DHT22;69705;44.686;37.628;2023-05-08T02:24:25;12.48;95.29
76857;DHT22;69705;44.686;37.628;2023-05-08T02:26:53;12.47;95.01
76857;DHT22;69705;44.686;37.628;2023-05-08T02:29:22;12.45;95.18
76857;DHT22;69705;44.686;37.628;2023-05-08T02:31:50;12.44;95.10
76857;DHT22;69705;44.686;37.628;2023-05-08T02:34:18;12.45;94.86
76857;DHT22;69705;44.686;37.628;2023-05-08T02:36:49;12.48;95.17
76857;DHT22;69705;44.686;37.628;2023-05-08T02:39:19;12.50;95.44
76857;DHT22;69705;44.686;37.628;2023-05-08T02:41:48;12.48;94.82
76857;DHT22;69705;44.686;37.628;2023-05-08T02:44:14;12.49;95.16
76857;DHT22;69705;44.686;37.628;2023-05-08T02:46:59;12.56;95.40
76857;DHT22;69705;44.686;37.628;2023-05-08T02:49:42;12.60;94.46
76857;DHT22;69705;44.686;37.628;2023-05-08T02:52:16;12.56;94.06
76857;DHT22;69705;44.686;37.628;2023-05-08T02:54:57;12.58;94.48
76857;DHT22;69705;44.686;37.628;2023-05-08T03:00:01;12.65;94.79
76857;DHT22;69705;44.686;37.628;2023-05-08T03:02:42;12.66;94.26
76857;DHT22;69705;44.686;37.628;2023-05-08T03:05:18;12.70;94.07
76857;DHT22;69705;44.686;37.628;2023-05-08T03:07:53;12.74;94.03
76857;DHT22;69705;44.686;37.628;2023-05-08T03:10:22;12.74;94.12
76857;DHT22;69705;44.686;37.628;2023-05-08T03:12:52;12.79;94.28
76857;DHT22;69705;44.686;37.628;2023-05-08T03:15:44;12.84;93.94
76857;DHT22;69705;44.686;37.628;2023-05-08T03:18:20;12.82;93.55
76857;DHT22;69705;44.686;37.628;2023-05-08T03:20:51;12.84;93.02
76857;DHT22;69705;44.686;37.628;2023-05-08T03:23:22;12.86;93.90
76857;DHT22;69705;44.686;37.628;2023-05-08T03:25:50;12.90;93.65
76857;DHT22;69705;44.686;37.628;2023-05-08T03:28:19;12.96;94.16
76857;DHT22;69705;44.686;37.628;2023-05-08T03:30:48;12.97;92.59
76857;DHT22;69705;44.686;37.628;2023-05-08T03:33:16;13.02;92.72
76857;DHT22;69705;44.686;37.628;2023-05-08T03:35:44;13.06;92.73
76857;DHT22;69705;44.686;37.628;2023-05-08T03:38:12;13.08;93.20
76857;DHT22;69705;44.686;37.628;2023-05-08T03:40:39;13.09;92.17
76857;DHT22;69705;44.686;37.628;2023-05-08T03:43:10;13.11;92.16
76857;DHT22;69705;44.686;37.628;2023-05-08T03:45:38;13.17;92.60
76857;DHT22;69705;44.686;37.628;2023-05-08T03:48:07;13.20;92.37
76857;DHT22;69705;44.686;37.628;2023-05-08T03:50:36;13.18;92.59
76857;DHT22;69705;44.686;37.628;2023-05-08T03:53:05;13.20;91.49
76857;DHT22;69705;44.686;37.628;2023-05-08T03:55:32;13.20;92.19
76857;DHT22;69705;44.686;37.628;2023-05-08T03:58:16;13.19;92.21
76857;DHT22;69705;44.686;37.628;2023-05-08T04:06:16;13.20;92.83
76857;DHT22;69705;44.686;37.628;2023-05-08T04:12:04;13.24;92.98
76857;DHT22;69705;44.686;37.628;2023-05-08T04:14:49;13.30;91.93
76857;DHT22;69705;44.686;37.628;2023-05-08T04:17:42;13.32;92.98
76857;DHT22;69705;44.686;37.628;2023-05-08T04:20:15;13.32;92.41
76857;DHT22;69705;44.686;37.628;2023-05-08T04:22:44;13.38;92.02
76857;DHT22;69705;44.686;37.628;2023-05-08T04:25:14;13.38;92.18
76857;DHT22;69705;44.686;37.628;2023-05-08T04:27:42;13.40;92.80
76857;DHT22;69705;44.686;37.628;2023-05-08T04:30:09;13.49;93.11
76857;DHT22;69705;44.686;37.628;2023-05-08T04:32:38;13.55;92.66
76857;DHT22;69705;44.686;37.628;2023-05-08T04:35:06;13.55;92.54
76857;DHT22;69705;44.686;37.628;2023-05-08T04:37:33;13.56;92.21
76857;DHT22;69705;44.686;37.628;2023-05-08T04:40:02;13.53;92.32
76857;DHT22;69705;44.686;37.628;2023-05-08T04:42:31;13.56;92.56
76857;DHT22;69705;44.686;37.628;2023-05-08T04:45:02;13.62;92.00
76857;DHT22;69705;44.686;37.628;2023-05-08T04:47:29;13.63;92.38
76857;DHT22;69705;44.686;37.628;2023-05-08T04:49:56;13.63;93.06
76857;DHT22;69705;44.686;37.628;2023-05-08T04:52:24;13.65;91.99
76857;DHT22;69705;44.686;37.628;2023-05-08T04:54:51;13.68;92.33
76857;DHT22;69705;44.686;37.628;2023-05-08T04:57:18;13.75;92.48
76857;DHT22;69705;44.686;37.628;2023-05-08T04:59:44;13.71;91.67
76857;DHT22;69705;44.686;37.628;2023-05-08T05:02:11;13.74;91.99
76857;DHT22;69705;44.686;37.628;2023-05-08T05:04:38;13.69;91.78
76857;DHT22;69705;44.686;37.628;2023-05-08T05:07:05;13.70;91.88
76857;DHT22;69705;44.686;37.628;2023-05-08T05:09:32;13.71;92.40
76857;DHT22;69705;44.686;37.628;2023-05-08T05:12:04;13.73;93.07
76857;DHT22;69705;44.686;37.628;2023-05-08T05:14:31;13.75;92.35
76857;DHT22;69705;44.686;37.628;2023-05-08T05:16:59;13.77;92.43
76857;DHT22;69705;44.686;37.628;2023-05-08T05:19:25;13.81;92.27
76857;DHT22;69705;44.686;37.628;2023-05-08T05:21:52;13.81;92.56
76857;DHT22;69705;44.686;37.628;2023-05-08T05:24:19;13.85;92.21
76857;DHT22;69705;44.686;37.628;2023-05-08T05:26:45;13.90;92.29
76857;DHT22;69705;44.686;37.628;2023-05-08T05:29:12;13.90;91.52
76857;DHT22;69705;44.686;37.628;2023-05-08T05:31:39;13.88;90.97
76857;DHT22;69705;44.686;37.628;2023-05-08T05:34:06;13.86;92.03
76857;DHT22;69705;44.686;37.628;2023-05-08T05:36:32;13.86;91.07
76857;DHT22;69705;44.686;37.628;2023-05-08T05:39:00;13.85;91.39
76857;DHT22;69705;44.686;37.628;2023-05-08T05:41:27;13.86;92.35
76857;DHT22;69705;44.686;37.628;2023-05-08T05:43:54;13.91;91.82
76857;DHT22;69705;44.686;37.628;2023-05-08T05:46:21;13.92;92.56
76857;DHT22;69705;44.686;37.628;2023-05-08T05:48:52;13.98;92.01
76857;DHT22;69705;44.686;37.628;2023-05-08T05:51:19;13.95;91.70
76857;DHT22;69705;44.686;37.628;2023-05-08T05:53:45;13.95;92.01
76857;DHT22;69705;44.686;37.628;2023-05-08T05:56:12;13.96;92.19
76857;DHT22;69705;44.686;37.628;2023-05-08T05:58:39;13.93;91.89
76857;DHT22;69705;44.686;37.628;2023-05-08T06:01:10;13.90;91.34
76857;DHT22;69705;44.686;37.628;2023-05-08T06:03:37;13.92;92.07
76857;DHT22;69705;44.686;37.628;2023-05-08T06:06:04;13.89;92.37
76857;DHT22;69705;44.686;37.628;2023-05-08T06:08:30;13.90;92.75
76857;DHT22;69705;44.686;37.628;2023-05-08T06:10:57;13.90;92.43
76857;DHT22;69705;44.686;37.628;2023-05-08T06:13:24;13.92;92.01
76857;DHT22;69705;44.686;37.628;2023-05-08T06:15:53;13.93;92.81
76857;DHT22;69705;44.686;37.628;2023-05-08T06:18:22;13.98;92.01
76857;DHT22;69705;44.686;37.628;2023-05-08T06:20:53;13.99;92.78
76857;DHT22;69705;44.686;37.628;2023-05-08T06:23:20;13.95;92.86
76857;DHT22;69705;44.686;37.628;2023-05-08T06:25:47;13.92;93.24
76857;DHT22;69705;44.686;37.628;2023-05-08T06:28:14;13.88;93.91
76857;DHT22;69705;44.686;37.628;2023-05-08T06:30:41;13.86;93.56
76857;DHT22;69705;44.686;37.628;2023-05-08T06:33:08;13.86;93.55
76857;DHT22;69705;44.686;37.628;2023-05-08T06:35:35;13.85;93.22
76857;DHT22;69705;44.686;37.628;2023-05-08T06:38:02;13.85;93.67
76857;DHT22;69705;44.686;37.628;2023-05-08T06:40:29;13.84;93.46
76857;DHT22;69705;44.686;37.628;2023-05-08T06:42:55;13.88;93.38
76857;DHT22;69705;44.686;37.628;2023-05-08T06:45:22;13.91;93.96
76857;DHT22;69705;44.686;37.628;2023-05-08T06:47:48;13.97;93.90
76857;DHT22;69705;44.686;37.628;2023-05-08T06:50:15;14.00;92.87
76857;DHT22;69705;44.686;37.628;2023-05-08T06:52:41;14.03;92.60
76857;DHT22;69705;44.686;37.628;2023-05-08T06:55:08;14.01;92.83
76857;DHT22;69705;44.686;37.628;2023-05-08T06:57:35;14.04;92.84
76857;DHT22;69705;44.686;37.628;2023-05-08T07:00:01;14.06;92.84
76857;DHT22;69705;44.686;37.628;2023-05-08T07:02:30;14.08;93.68
76857;DHT22;69705;44.686;37.628;2023-05-08T07:04:57;14.09;93.54
76857;DHT22;69705;44.686;37.628;2023-05-08T07:07:24;14.13;93.15
76857;DHT22;69705;44.686;37.628;2023-05-08T07:09:50;14.10;92.73
76857;DHT22;69705;44.686;37.628;2023-05-08T07:12:17;14.13;93.28
76857;DHT22;69705;44.686;37.628;2023-05-08T07:14:44;14.17;93.07
76857;DHT22;69705;44.686;37.628;2023-05-08T07:17:11;14.17;93.59
76857;DHT22;69705;44.686;37.628;2023-05-08T07:19:38;14.17;93.08
76857;DHT22;69705;44.686;37.628;2023-05-08T07:22:05;14.15;93.49
76857;DHT22;69705;44.686;37.628;2023-05-08T07:24:34;14.18;93.24
76857;DHT22;69705;44.686;37.628;2023-05-08T07:27:01;14.18;93.44
76857;DHT22;69705;44.686;37.628;2023-05-08T07:29:29;14.17;93.17
76857;DHT22;69705;44.686;37.628;2023-05-08T07:31:56;14.17;93.39
76857;DHT22;69705;44.686;37.628;2023-05-08T07:34:23;14.13;93.04
76857;DHT22;69705;44.686;37.628;2023-05-08T07:36:51;14.13;93.73
76857;DHT22;69705;44.686;37.628;2023-05-08T07:39:19;14.07;94.30
76857;DHT22;69705;44.686;37.628;2023-05-08T07:41:47;14.04;93.84
76857;DHT22;69705;44.686;37.628;2023-05-08T07:44:13;14.06;93.88
76857;DHT22;69705;44.686;37.628;2023-05-08T07:46:40;14.07;94.84
76857;DHT22;69705;44.686;37.628;2023-05-08T07:49:07;14.13;94.68
76857;DHT22;69705;44.686;37.628;2023-05-08T07:51:34;14.15;94.60
76857;DHT22;69705;44.686;37.628;2023-05-08T07:54:01;14.18;94.93
76857;DHT22;69705;44.686;37.628;2023-05-08T07:56:28;14.15;94.77
76857;DHT22;69705;44.686;37.628;2023-05-08T07:58:55;14.14;94.38
76857;DHT22;69705;44.686;37.628;2023-05-08T08:01:22;14.14;94.17
76857;DHT22;69705;44.686;37.628;2023-05-08T08:03:48;14.17;94.30
76857;DHT22;69705;44.686;37.628;2023-05-08T08:06:15;14.21;94.33
76857;DHT22;69705;44.686;37.628;2023-05-08T08:08:44;14.19;93.38
76857;DHT22;69705;44.686;37.628;2023-05-08T08:11:11;14.27;93.64
76857;DHT22;69705;44.686;37.628;2023-05-08T08:13:37;14.28;94.07
76857;DHT22;69705;44.686;37.628;2023-05-08T08:16:05;14.29;93.11
76857;DHT22;69705;44.686;37.628;2023-05-08T08:18:35;14.28;93.80
76857;DHT22;69705;44.686;37.628;2023-05-08T08:21:06;14.33;94.01
76857;DHT22;69705;44.686;37.628;2023-05-08T08:23:33;14.34;93.91
76857;DHT22;69705;44.686;37.628;2023-05-08T08:26:00;14.34;93.21
76857;DHT22;69705;44.686;37.628;2023-05-08T08:28:26;14.30;93.85
76857;DHT22;69705;44.686;37.628;2023-05-08T08:30:53;14.29;94.01
76857;DHT22;69705;44.686;37.628;2023-05-08T08:33:20;14.34;94.19
76857;DHT22;69705;44.686;37.628;2023-05-08T08:35:47;14.34;94.11
76857;DHT22;69705;44.686;37.628;2023-05-08T08:38:14;14.29;92.59
76857;DHT22;69705;44.686;37.628;2023-05-08T08:40:42;14.33;93.44
76857;DHT22;69705;44.686;37.628;2023-05-08T08:43:09;14.39;93.60
76857;DHT22;69705;44.686;37.628;2023-05-08T08:45:36;14.47;93.56
76857;DHT22;69705;44.686;37.628;2023-05-08T08:48:03;14.50;93.01
76857;DHT22;69705;44.686;37.628;2023-05-08T08:50:32;14.53;92.59
76857;DHT22;69705;44.686;37.628;2023-05-08T08:53:21;14.52;93.01
76857;DHT22;69705;44.686;37.628;2023-05-08T08:55:53;14.47;92.59
76857;DHT22;69705;44.686;37.628;2023-05-08T08:58:34;14.51;92.56
76857;DHT22;69705;44.686;37.628;2023-05-08T09:01:04;14.51;93.09
76857;DHT22;69705;44.686;37.628;2023-05-08T09:03:31;14.52;93.00
76857;DHT22;69705;44.686;37.628;2023-05-08T09:06:01;14.52;92.26
76857;DHT22;69705;44.686;37.628;2023-05-08T09:08:28;14.56;93.21
76857;DHT22;69705;44.686;37.628;2023-05-08T09:10:55;14.63;93.21
76857;DHT22;69705;44.686;37.628;2023-05-08T09:13:22;14.67;93.08
76857;DHT22;69705;44.686;37.628;2023-05-08T09:15:49;14.62;92.36
76857;DHT22;69705;44.686;37.628;2023-05-08T09:18:16;14.67;92.67
76857;DHT22;69705;44.686;37.628;2023-05-08T09:20:43;14.68;92.55
76857;DHT22;69705;44.686;37.628;2023-05-08T09:23:10;14.69;92.90
76857;DHT22;69705;44.686;37.628;2023-05-08T09:25:43;14.66;91.84
76857;DHT22;69705;44.686;37.628;2023-05-08T09:28:17;14.62;91.62
76857;DHT22;69705;44.686;37.628;2023-05-08T09:30:57;14.56;92.21
76857;DHT22;69705;44.686;37.628;2023-05-08T09:33:28;14.60;92.76
76857;DHT22;69705;44.686;37.628;2023-05-08T09:35:55;14.64;92.40
76857;DHT22;69705;44.686;37.628;2023-05-08T09:41:11;14.60;91.60
76857;DHT22;69705;44.686;37.628;2023-05-08T09:43:40;14.59;92.39
76857;DHT22;69705;44.686;37.628;2023-05-08T09:46:24;14.57;92.66
76857;DHT22;69705;44.686;37.628;2023-05-08T09:48:56;14.53;93.02
76857;DHT22;69705;44.686;37.628;2023-05-08T09:51:24;14.44;92.87
76857;DHT22;69705;44.686;37.628;2023-05-08T09:53:53;14.39;93.47
76857;DHT22;69705;44.686;37.628;2023-05-08T09:56:37;14.37;93.48
76857;DHT22;69705;44.686;37.628;2023-05-08T09:59:25;14.38;93.85
76857;DHT22;69705;44.686;37.628;2023-05-08T10:01:53;14.38;94.21
76857;DHT22;69705;44.686;37.628;2023-05-08T10:04:36;14.39;93.89
76857;DHT22;69705;44.686;37.628;2023-05-08T10:07:03;14.44;93.80
76857;DHT22;69705;44.686;37.628;2023-05-08T10:09:30;14.49;93.62
76857;DHT22;69705;44.686;37.628;2023-05-08T10:11:57;14.56;93.52
76857;DHT22;69705;44.686;37.628;2023-05-08T10:14:24;14.54;92.66
76857;DHT22;69705;44.686;37.628;2023-05-08T10:16:52;14.57;92.44
76857;DHT22;69705;44.686;37.628;2023-05-08T10:19:21;14.51;92.40
76857;DHT22;69705;44.686;37.628;2023-05-08T10:21:49;14.54;93.01
76857;DHT22;69705;44.686;37.628;2023-05-08T10:24:30;14.52;93.10
76857;DHT22;69705;44.686;37.628;2023-05-08T10:27:16;14.49;93.67
76857;DHT22;69705;44.686;37.628;2023-05-08T10:29:55;14.50;93.27
76857;DHT22;69705;44.686;37.628;2023-05-08T10:32:23;14.45;93.18
76857;DHT22;69705;44.686;37.628;2023-05-08T10:34:55;14.37;93.56
76857;DHT22;69705;44.686;37.628;2023-05-08T10:37:24;14.33;93.60
76857;DHT22;69705;44.686;37.628;2023-05-08T10:39:52;14.33;93.97
76857;DHT22;69705;44.686;37.628;2023-05-08T10:42:19;14.34;94.40
76857;DHT22;69705;44.686;37.628;2023-05-08T10:44:47;14.39;93.82
76857;DHT22;69705;44.686;37.628;2023-05-08T10:47:26;14.39;93.53
76857;DHT22;69705;44.686;37.628;2023-05-08T10:50:00;14.43;93.13
76857;DHT22;69705;44.686;37.628;2023-05-08T10:57:39;14.55;93.62
76857;DHT22;69705;44.686;37.628;2023-05-08T11:00:06;14.67;93.95
76857;DHT22;69705;44.686;37.628;2023-05-08T11:02:33;14.70;93.75
76857;DHT22;69705;44.686;37.628;2023-05-08T11:05:24;14.71;93.14
76857;DHT22;69705;44.686;37.628;2023-05-08T11:07:55;14.71;93.21
76857;DHT22;69705;44.686;37.628;2023-05-08T11:10:29;14.68;92.63
76857;DHT22;69705;44.686;37.628;2023-05-08T11:12:56;14.66;93.27
76857;DHT22;69705;44.686;37.628;2023-05-08T11:15:38;14.69;93.21
76857;DHT22;69705;44.686;37.628;2023-05-08T11:18:09;14.63;93.29
76857;DHT22;69705;44.686;37.628;2023-05-08T11:20:41;14.59;92.83
76857;DHT22;69705;44.686;37.628;2023-05-08T11:23:27;14.62;93.29
76857;DHT22;69705;44.686;37.628;2023-05-08T11:26:03;14.57;93.74
76857;DHT22;69705;44.686;37.628;2023-05-08T11:28:37;14.56;93.97
76857;DHT22;69705;44.686;37.628;2023-05-08T11:31:06;14.60;94.25
76857;DHT22;69705;44.686;37.628;2023-05-08T11:33:34;14.62;93.98
76857;DHT22;69705;44.686;37.628;2023-05-08T11:36:13;14.60;94.26
76857;DHT22;69705;44.686;37.628;2023-05-08T11:38:41;14.62;93.34
76857;DHT22;69705;44.686;37.628;2023-05-08T11:41:10;14.64;93.89
76857;DHT22;69705;44.686;37.628;2023-05-08T11:43:49;14.68;93.77
76857;DHT22;69705;44.686;37.628;2023-05-08T11:46:20;14.70;93.25
76857;DHT22;69705;44.686;37.628;2023-05-08T11:48:47;14.73;93.70
76857;DHT22;69705;44.686;37.628;2023-05-08T11:51:16;14.79;93.12
76857;DHT22;69705;44.686;37.628;2023-05-08T11:53:43;14.77;93.76
76857;DHT22;69705;44.686;37.628;2023-05-08T11:56:10;14.79;93.33
76857;DHT22;69705;44.686;37.628;2023-05-08T11:58:37;14.74;92.82
76857;DHT22;69705;44.686;37.628;2023-05-08T12:01:03;14.68;93.05
76857;DHT22;69705;44.686;37.628;2023-05-08T12:03:30;14.66;93.53
76857;DHT22;69705;44.686;37.628;2023-05-08T12:05:58;14.64;93.30
76857;DHT22;69705;44.686;37.628;2023-05-08T12:08:25;14.59;91.56
76857;DHT22;69705;44.686;37.628;2023-05-08T12:10:53;14.60;93.11
76857;DHT22;69705;44.686;37.628;2023-05-08T12:13:25;14.68;93.55
76857;DHT22;69705;44.686;37.628;2023-05-08T12:15:57;14.66;92.70
76857;DHT22;69705;44.686;37.628;2023-05-08T12:18:26;14.63;92.20
76857;DHT22;69705;44.686;37.628;2023-05-08T12:20:57;14.62;92.79
76857;DHT22;69705;44.686;37.628;2023-05-08T12:23:25;14.64;93.06
76857;DHT22;69705;44.686;37.628;2023-05-08T12:25:52;14.64;92.57
76857;DHT22;69705;44.686;37.628;2023-05-08T12:28:19;14.63;92.17
76857;DHT22;69705;44.686;37.628;2023-05-08T12:30:46;14.59;92.81
76857;DHT22;69705;44.686;37.628;2023-05-08T12:33:15;14.63;92.87
76857;DHT22;69705;44.686;37.628;2023-05-08T12:35:41;14.63;92.80
76857;DHT22;69705;44.686;37.628;2023-05-08T12:38:08;14.65;92.92
76857;DHT22;69705;44.686;37.628;2023-05-08T12:40:42;14.64;92.13
76857;DHT22;69705;44.686;37.628;2023-05-08T12:43:09;14.58;92.35
76857;DHT22;69705;44.686;37.628;2023-05-08T12:45:40;14.53;93.00
76857;DHT22;69705;44.686;37.628;2023-05-08T12:48:13;14.49;93.72
76857;DHT22;69705;44.686;37.628;2023-05-08T12:50:44;14.49;92.16
76857;DHT22;69705;44.686;37.628;2023-05-08T12:53:16;14.54;93.84
76857;DHT22;69705;44.686;37.628;2023-05-08T12:55:57;14.59;93.62
76857;DHT22;69705;44.686;37.628;2023-05-08T12:58:26;14.64;93.95
76857;DHT22;69705;44.686;37.628;2023-05-08T13:01:06;14.70;92.91
76857;DHT22;69705;44.686;37.628;2023-05-08T13:03:35;14.68;92.66
76857;DHT22;69705;44.686;37.628;2023-05-08T13:06:03;14.68;93.21
76857;DHT22;69705;44.686;37.628;2023-05-08T13:08:32;14.63;92.66
76857;DHT22;69705;44.686;37.628;2023-05-08T13:11:00;14.60;93.07
76857;DHT22;69705;44.686;37.628;2023-05-08T13:13:29;14.56;92.91
76857;DHT22;69705;44.686;37.628;2023-05-08T13:15:56;14.52;93.33
76857;DHT22;69705;44.686;37.628;2023-05-08T13:18:25;14.53;92.95
76857;DHT22;69705;44.686;37.628;2023-05-08T13:20:53;14.53;93.76
76857;DHT22;69705;44.686;37.628;2023-05-08T13:23:20;14.56;93.95
76857;DHT22;69705;44.686;37.628;2023-05-08T13:25:46;14.62;93.49
76857;DHT22;69705;44.686;37.628;2023-05-08T13:28:14;14.57;93.00
76857;DHT22;69705;44.686;37.628;2023-05-08T13:30:40;14.55;93.56
76857;DHT22;69705;44.686;37.628;2023-05-08T13:33:07;14.49;92.44
76857;DHT22;69705;44.686;37.628;2023-05-08T13:35:34;14.44;93.13
76857;DHT22;69705;44.686;37.628;2023-05-08T13:38:01;14.43;93.08
76857;DHT22;69705;44.686;37.628;2023-05-08T13:40:28;14.40;92.98
76857;DHT22;69705;44.686;37.628;2023-05-08T13:42:55;14.37;93.01
76857;DHT22;69705;44.686;37.628;2023-05-08T13:45:21;14.36;93.24
76857;DHT22;69705;44.686;37.628;2023-05-08T13:47:48;14.33;93.60
76857;DHT22;69705;44.686;37.628;2023-05-08T13:50:17;14.37;93.56
76857;DHT22;69705;44.686;37.628;2023-05-08T13:52:44;14.40;93.59
76857;DHT22;69705;44.686;37.628;2023-05-08T13:55:12;14.40;92.31
76857;DHT22;69705;44.686;37.628;2023-05-08T13:57:39;14.42;93.11
76857;DHT22;69705;44.686;37.628;2023-05-08T14:00:06;14.36;93.24
76857;DHT22;69705;44.686;37.628;2023-05-08T14:02:34;14.36;93.66
76857;DHT22;69705;44.686;37.628;2023-05-08T14:05:02;14.32;92.26
76857;DHT22;69705;44.686;37.628;2023-05-08T14:07:29;14.26;91.79
76857;DHT22;69705;44.686;37.628;2023-05-08T14:09:56;14.26;92.70
76857;DHT22;69705;44.686;37.628;2023-05-08T14:12:22;14.25;92.12
76857;DHT22;69705;44.686;37.628;2023-05-08T14:14:49;14.29;92.95
76857;DHT22;69705;44.686;37.628;2023-05-08T14:17:16;14.27;92.68
76857;DHT22;69705;44.686;37.628;2023-05-08T14:19:42;14.26;93.04
76857;DHT22;69705;44.686;37.628;2023-05-08T14:22:09;14.28;93.41
76857;DHT22;69705;44.686;37.628;2023-05-08T14:24:36;14.28;92.53
76857;DHT22;69705;44.686;37.628;2023-05-08T14:27:02;14.32;92.87
76857;DHT22;69705;44.686;37.628;2023-05-08T14:29:32;14.29;93.11
76857;DHT22;69705;44.686;37.628;2023-05-08T14:31:58;14.28;93.27
76857;DHT22;69705;44.686;37.628;2023-05-08T14:34:25;14.20;93.26
76857;DHT22;69705;44.686;37.628;2023-05-08T14:36:52;14.17;93.82
76857;DHT22;69705;44.686;37.628;2023-05-08T14:39:18;14.17;93.53
76857;DHT22;69705;44.686;37.628;2023-05-08T14:41:45;14.15;93.37
76857;DHT22;69705;44.686;37.628;2023-05-08T14:44:11;14.11;94.04
76857;DHT22;69705;44.686;37.628;2023-05-08T14:46:38;14.09;94.39
76857;DHT22;69705;44.686;37.628;2023-05-08T14:49:04;14.06;94.14
76857;DHT22;69705;44.686;37.628;2023-05-08T14:51:31;14.05;94.72
76857;DHT22;69705;44.686;37.628;2023-05-08T14:53:57;14.04;94.60
76857;DHT22;69705;44.686;37.628;2023-05-08T14:56:24;14.07;94.28
76857;DHT22;69705;44.686;37.628;2023-05-08T14:58:51;14.08;94.90
76857;DHT22;69705;44.686;37.628;2023-05-08T15:01:18;14.07;94.94
76857;DHT22;69705;44.686;37.628;2023-05-08T15:03:44;14.10;95.02
76857;DHT22;69705;44.686;37.628;2023-05-08T15:06:22;14.10;94.74
76857;DHT22;69705;44.686;37.628;2023-05-08T15:08:50;14.11;94.60
76857;DHT22;69705;44.686;37.628;2023-05-08T15:11:17;14.11;94.94
76857;DHT22;69705;44.686;37.628;2023-05-08T15:13:44;14.13;94.26
76857;DHT22;69705;44.686;37.628;2023-05-08T15:16:10;14.08;94.30
76857;DHT22;69705;44.686;37.628;2023-05-08T15:18:37;14.06;94.17
76857;DHT22;69705;44.686;37.628;2023-05-08T15:21:05;14.08;94.40
76857;DHT22;69705;44.686;37.628;2023-05-08T15:23:31;14.05;94.05
76857;DHT22;69705;44.686;37.628;2023-05-08T15:25:58;13.96;94.36
76857;DHT22;69705;44.686;37.628;2023-05-08T15:28:24;13.97;94.20
76857;DHT22;69705;44.686;37.628;2023-05-08T15:30:51;13.95;94.68
76857;DHT22;69705;44.686;37.628;2023-05-08T15:33:18;13.94;94.98
76857;DHT22;69705;44.686;37.628;2023-05-08T15:35:44;13.92;94.72
76857;DHT22;69705;44.686;37.628;2023-05-08T15:38:12;13.94;96.42
76857;DHT22;69705;44.686;37.628;2023-05-08T15:40:40;13.91;95.39
76857;DHT22;69705;44.686;37.628;2023-05-08T15:43:06;13.91;94.85
76857;DHT22;69705;44.686;37.628;2023-05-08T15:45:33;13.95;94.37
76857;DHT22;69705;44.686;37.628;2023-05-08T15:47:59;13.94;94.19
76857;DHT22;69705;44.686;37.628;2023-05-08T15:50:26;13.92;93.82
76857;DHT22;69705;44.686;37.628;2023-05-08T15:52:53;13.90;92.92
76857;DHT22;69705;44.686;37.628;2023-05-08T15:55:19;13.89;94.13
76857;DHT22;69705;44.686;37.628;2023-05-08T15:57:46;13.86;94.27